sensor_id;sensor_type;location;lat;lon;timestamp;pressure;altitude;pressure_sealevel;temperature
45701;BMP280;36277;32.852;-116.998;2023-11-21T00:02:08;100385.03;;;26.22
45701;BMP280;36277;32.852;-116.998;2023-11-21T00:04:34;100376.91;;;26.21
45701;BMP280;36277;32.852;-116.998;2023-11-21T00:07:00;100383.97;;;26.23
45701;BMP280;36277;32.852;-116.998;2023-11-21T00:09:26;100376.13;;;26.27
45701;BMP280;36277;32.852;-116.998;2023-11-21T00:11:53;100382.91;;;26.24
45701;BMP280;36277;32.852;-116.998;2023-11-21T00:14:19;100381.66;;;26.27
45701;BMP280;36277;32.852;-116.998;2023-11-21T00:16:45;100384.19;;;26.28
45701;BMP280;36277;32.852;-116.998;2023-11-21T00:19:12;100390.13;;;26.25
45701;BMP280;36277;32.852;-116.998;2023-11-21T00:21:38;100386.78;;;26.30
45701;BMP280;36277;32.852;-116.998;2023-11-21T00:24:04;100387.63;;;26.30
45701;BMP280;36277;32.852;-116.998;2023-11-21T00:26:31;100396.78;;;26.31
45701;BMP280;36277;32.852;-116.998;2023-11-21T00:29:02;100402.50;;;26.29
45701;BMP280;36277;32.852;-116.998;2023-11-21T00:31:28;100413.19;;;26.32
45701;BMP280;36277;32.852;-116.998;2023-11-21T00:33:56;100402.97;;;26.33
45701;BMP280;36277;32.852;-116.998;2023-11-21T00:36:22;100409.75;;;26.30
45701;BMP280;36277;32.852;-116.998;2023-11-21T00:38:49;100418.72;;;26.32
45701;BMP280;36277;32.852;-116.998;2023-11-21T00:41:15;100425.56;;;26.36
45701;BMP280;36277;32.852;-116.998;2023-11-21T00:43:41;100426.44;;;26.37
45701;BMP280;36277;32.852;-116.998;2023-11-21T00:46:07;100427.69;;;26.34
45701;BMP280;36277;32.852;-116.998;2023-11-21T00:48:34;100419.19;;;26.36
45701;BMP280;36277;32.852;-116.998;2023-11-21T00:51:00;100419.38;;;26.34
45701;BMP280;36277;32.852;-116.998;2023-11-21T00:53:26;100430.44;;;26.34
45701;BMP280;36277;32.852;-116.998;2023-11-21T00:55:52;100428.47;;;26.28
45701;BMP280;36277;32.852;-116.998;2023-11-21T00:58:24;100431.09;;;26.36
45701;BMP280;36277;32.852;-116.998;2023-11-21T01:00:50;100436.63;;;26.36
45701;BMP280;36277;32.852;-116.998;2023-11-21T01:03:16;100439.22;;;26.38
45701;BMP280;36277;32.852;-116.998;2023-11-21T01:05:43;100437.06;;;26.39
45701;BMP280;36277;32.852;-116.998;2023-11-21T01:08:09;100454.56;;;26.40
45701;BMP280;36277;32.852;-116.998;2023-11-21T01:10:36;100467.53;;;26.39
45701;BMP280;36277;32.852;-116.998;2023-11-21T01:13:03;100466.25;;;26.36
45701;BMP280;36277;32.852;-116.998;2023-11-21T01:15:33;100466.41;;;26.34
45701;BMP280;36277;32.852;-116.998;2023-11-21T01:18:00;100469.41;;;26.33
45701;BMP280;36277;32.852;-116.998;2023-11-21T01:20:26;100465.59;;;26.34
45701;BMP280;36277;32.852;-116.998;2023-11-21T01:22:52;100464.31;;;26.36
45701;BMP280;36277;32.852;-116.998;2023-11-21T01:25:19;100471.78;;;26.36
45701;BMP280;36277;32.852;-116.998;2023-11-21T01:27:46;100493.25;;;26.34
45701;BMP280;36277;32.852;-116.998;2023-11-21T01:30:13;100480.06;;;26.36
45701;BMP280;36277;32.852;-116.998;2023-11-21T01:32:40;100499.63;;;26.34
45701;BMP280;36277;32.852;-116.998;2023-11-21T01:35:06;100500.69;;;26.33
45701;BMP280;36277;32.852;-116.998;2023-11-21T01:37:33;100509.00;;;26.33
45701;BMP280;36277;32.852;-116.998;2023-11-21T01:39:59;100512.41;;;26.35
45701;BMP280;36277;32.852;-116.998;2023-11-21T01:42:27;100522.16;;;26.31
45701;BMP280;36277;32.852;-116.998;2023-11-21T01:44:55;100515.41;;;26.34
45701;BMP280;36277;32.852;-116.998;2023-11-21T01:47:21;100519.66;;;26.36
45701;BMP280;36277;32.852;-116.998;2023-11-21T01:49:47;100535.81;;;26.33
45701;BMP280;36277;32.852;-116.998;2023-11-21T01:52:14;100535.59;;;26.34
45701;BMP280;36277;32.852;-116.998;2023-11-21T01:54:41;100529.41;;;26.32
45701;BMP280;36277;32.852;-116.998;2023-11-21T01:57:08;100531.53;;;26.30
45701;BMP280;36277;32.852;-116.998;2023-11-21T01:59:37;100523.44;;;26.29
45701;BMP280;36277;32.852;-116.998;2023-11-21T02:02:05;100525.16;;;26.30
45701;BMP280;36277;32.852;-116.998;2023-11-21T02:04:32;100546.41;;;26.29
45701;BMP280;36277;32.852;-116.998;2023-11-21T02:06:59;100550.06;;;26.30
45701;BMP280;36277;32.852;-116.998;2023-11-21T02:09:27;100554.06;;;26.27
45701;BMP280;36277;32.852;-116.998;2023-11-21T02:11:53;100563.22;;;26.28
45701;BMP280;36277;32.852;-116.998;2023-11-21T02:14:20;100547.47;;;26.28
45701;BMP280;36277;32.852;-116.998;2023-11-21T02:16:50;100558.53;;;26.28
45701;BMP280;36277;32.852;-116.998;2023-11-21T02:19:18;100556.59;;;26.22
45701;BMP280;36277;32.852;-116.998;2023-11-21T02:21:47;100573.75;;;26.18
45701;BMP280;36277;32.852;-116.998;2023-11-21T02:24:15;100569.59;;;26.07
45701;BMP280;36277;32.852;-116.998;2023-11-21T02:26:52;100576.00;;;26.08
45701;BMP280;36277;32.852;-116.998;2023-11-21T02:29:29;100567.59;;;26.01
45701;BMP280;36277;32.852;-116.998;2023-11-21T02:31:55;100571.63;;;25.99
45701;BMP280;36277;32.852;-116.998;2023-11-21T02:34:23;100569.06;;;25.97
45701;BMP280;36277;32.852;-116.998;2023-11-21T02:36:50;100573.66;;;25.90
45701;BMP280;36277;32.852;-116.998;2023-11-21T02:39:17;100580.91;;;25.91
45701;BMP280;36277;32.852;-116.998;2023-11-21T02:41:44;100581.69;;;25.85
45701;BMP280;36277;32.852;-116.998;2023-11-21T02:44:10;100574.06;;;25.87
45701;BMP280;36277;32.852;-116.998;2023-11-21T02:46:37;100571.69;;;25.84
45701;BMP280;36277;32.852;-116.998;2023-11-21T02:49:05;100572.28;;;25.80
45701;BMP280;36277;32.852;-116.998;2023-11-21T02:51:36;100571.41;;;25.79
45701;BMP280;36277;32.852;-116.998;2023-11-21T02:54:04;100564.13;;;25.78
45701;BMP280;36277;32.852;-116.998;2023-11-21T02:56:32;100568.97;;;25.76
45701;BMP280;36277;32.852;-116.998;2023-11-21T02:59:00;100575.97;;;25.72
45701;BMP280;36277;32.852;-116.998;2023-11-21T03:01:26;100579.78;;;25.71
45701;BMP280;36277;32.852;-116.998;2023-11-21T03:03:53;100583.78;;;25.69
45701;BMP280;36277;32.852;-116.998;2023-11-21T03:06:21;100583.13;;;25.67
45701;BMP280;36277;32.852;-116.998;2023-11-21T03:08:47;100587.41;;;25.69
45701;BMP280;36277;32.852;-116.998;2023-11-21T03:11:14;100584.84;;;25.68
45701;BMP280;36277;32.852;-116.998;2023-11-21T03:13:41;100572.44;;;25.64
45701;BMP280;36277;32.852;-116.998;2023-11-21T03:16:11;100582.28;;;25.66
45701;BMP280;36277;32.852;-116.998;2023-11-21T03:18:38;100581.16;;;25.61
45701;BMP280;36277;32.852;-116.998;2023-11-21T03:21:05;100569.59;;;25.57
45701;BMP280;36277;32.852;-116.998;2023-11-21T03:23:35;100574.47;;;25.55
45701;BMP280;36277;32.852;-116.998;2023-11-21T03:26:02;100587.63;;;25.53
45701;BMP280;36277;32.852;-116.998;2023-11-21T03:28:28;100593.13;;;25.53
45701;BMP280;36277;32.852;-116.998;2023-11-21T03:30:55;100600.75;;;25.51
45701;BMP280;36277;32.852;-116.998;2023-11-21T03:33:22;100613.53;;;25.52
45701;BMP280;36277;32.852;-116.998;2023-11-21T03:35:49;100609.25;;;25.50
45701;BMP280;36277;32.852;-116.998;2023-11-21T03:38:15;100613.91;;;25.49
45701;BMP280;36277;32.852;-116.998;2023-11-21T03:40:42;100617.75;;;25.48
45701;BMP280;36277;32.852;-116.998;2023-11-21T03:43:08;100621.56;;;25.47
45701;BMP280;36277;32.852;-116.998;2023-11-21T03:45:34;100623.84;;;25.44
45701;BMP280;36277;32.852;-116.998;2023-11-21T03:48:01;100624.88;;;25.43
45701;BMP280;36277;32.852;-116.998;2023-11-21T03:50:29;100621.28;;;25.42
45701;BMP280;36277;32.852;-116.998;2023-11-21T03:52:55;100629.94;;;25.39
45701;BMP280;36277;32.852;-116.998;2023-11-21T03:55:21;100626.31;;;25.39
45701;BMP280;36277;32.852;-116.998;2023-11-21T03:57:49;100622.88;;;25.37
45701;BMP280;36277;32.852;-116.998;2023-11-21T04:00:15;100643.75;;;25.39
45701;BMP280;36277;32.852;-116.998;2023-11-21T04:02:42;100639.38;;;25.45
45701;BMP280;36277;32.852;-116.998;2023-11-21T04:05:08;100622.13;;;25.43
45701;BMP280;36277;32.852;-116.998;2023-11-21T04:07:35;100630.25;;;25.44
45701;BMP280;36277;32.852;-116.998;2023-11-21T04:10:06;100630.78;;;25.40
45701;BMP280;36277;32.852;-116.998;2023-11-21T04:12:35;100640.03;;;25.32
45701;BMP280;36277;32.852;-116.998;2023-11-21T04:15:05;100644.88;;;25.30
45701;BMP280;36277;32.852;-116.998;2023-11-21T04:17:31;100634.03;;;25.29
45701;BMP280;36277;32.852;-116.998;2023-11-21T04:19:57;100635.25;;;25.27
45701;BMP280;36277;32.852;-116.998;2023-11-21T04:22:23;100638.03;;;25.27
45701;BMP280;36277;32.852;-116.998;2023-11-21T04:24:50;100640.78;;;25.27
45701;BMP280;36277;32.852;-116.998;2023-11-21T04:27:16;100643.38;;;25.28
45701;BMP280;36277;32.852;-116.998;2023-11-21T04:29:46;100648.03;;;25.27
45701;BMP280;36277;32.852;-116.998;2023-11-21T04:32:12;100643.84;;;25.31
45701;BMP280;36277;32.852;-116.998;2023-11-21T04:34:38;100640.41;;;25.29
45701;BMP280;36277;32.852;-116.998;2023-11-21T04:37:04;100646.97;;;25.28
45701;BMP280;36277;32.852;-116.998;2023-11-21T04:39:32;100641.66;;;25.27
45701;BMP280;36277;32.852;-116.998;2023-11-21T04:41:58;100657.00;;;25.29
45701;BMP280;36277;32.852;-116.998;2023-11-21T04:44:24;100663.75;;;25.27
45701;BMP280;36277;32.852;-116.998;2023-11-21T04:46:51;100668.63;;;25.25
45701;BMP280;36277;32.852;-116.998;2023-11-21T04:49:17;100651.84;;;25.27
45701;BMP280;36277;32.852;-116.998;2023-11-21T04:51:43;100642.88;;;25.25
45701;BMP280;36277;32.852;-116.998;2023-11-21T04:54:09;100636.03;;;25.21
45701;BMP280;36277;32.852;-116.998;2023-11-21T04:56:36;100647.09;;;25.21
45701;BMP280;36277;32.852;-116.998;2023-11-21T04:59:02;100641.56;;;25.21
45701;BMP280;36277;32.852;-116.998;2023-11-21T05:01:30;100646.88;;;25.22
45701;BMP280;36277;32.852;-116.998;2023-11-21T05:03:56;100663.00;;;25.19
45701;BMP280;36277;32.852;-116.998;2023-11-21T05:06:22;100661.44;;;25.16
45701;BMP280;36277;32.852;-116.998;2023-11-21T05:08:49;100661.44;;;25.16
45701;BMP280;36277;32.852;-116.998;2023-11-21T05:11:26;100666.44;;;25.21
45701;BMP280;36277;32.852;-116.998;2023-11-21T05:13:53;100659.22;;;25.12
45701;BMP280;36277;32.852;-116.998;2023-11-21T05:16:22;100671.66;;;25.16
45701;BMP280;36277;32.852;-116.998;2023-11-21T05:18:48;100669.41;;;25.11
45701;BMP280;36277;32.852;-116.998;2023-11-21T05:21:16;100673.88;;;25.12
45701;BMP280;36277;32.852;-116.998;2023-11-21T05:23:42;100679.97;;;25.08
45701;BMP280;36277;32.852;-116.998;2023-11-21T05:26:08;100672.94;;;25.05
45701;BMP280;36277;32.852;-116.998;2023-11-21T05:28:35;100688.25;;;25.08
45701;BMP280;36277;32.852;-116.998;2023-11-21T05:31:02;100676.53;;;25.06
45701;BMP280;36277;32.852;-116.998;2023-11-21T05:33:28;100668.47;;;25.04
45701;BMP280;36277;32.852;-116.998;2023-11-21T05:35:55;100686.25;;;25.02
45701;BMP280;36277;32.852;-116.998;2023-11-21T05:38:21;100678.84;;;25.02
45701;BMP280;36277;32.852;-116.998;2023-11-21T05:40:47;100678.16;;;25.00
45701;BMP280;36277;32.852;-116.998;2023-11-21T05:43:13;100680.25;;;24.98
45701;BMP280;36277;32.852;-116.998;2023-11-21T05:45:41;100678.06;;;24.94
45701;BMP280;36277;32.852;-116.998;2023-11-21T05:48:07;100670.63;;;24.94
45701;BMP280;36277;32.852;-116.998;2023-11-21T05:50:33;100682.69;;;24.93
45701;BMP280;36277;32.852;-116.998;2023-11-21T05:52:59;100675.47;;;24.92
45701;BMP280;36277;32.852;-116.998;2023-11-21T05:55:26;100687.38;;;24.93
45701;BMP280;36277;32.852;-116.998;2023-11-21T05:57:52;100686.50;;;24.92
45701;BMP280;36277;32.852;-116.998;2023-11-21T06:00:20;100683.56;;;24.94
45701;BMP280;36277;32.852;-116.998;2023-11-21T06:02:52;100678.78;;;24.88
45701;BMP280;36277;32.852;-116.998;2023-11-21T06:05:23;100683.63;;;24.86
45701;BMP280;36277;32.852;-116.998;2023-11-21T06:07:50;100687.44;;;24.85
45701;BMP280;36277;32.852;-116.998;2023-11-21T06:10:20;100685.91;;;24.82
45701;BMP280;36277;32.852;-116.998;2023-11-21T06:12:47;100679.53;;;24.82
45701;BMP280;36277;32.852;-116.998;2023-11-21T06:15:14;100685.41;;;24.79
45701;BMP280;36277;32.852;-116.998;2023-11-21T06:17:42;100672.47;;;24.79
45701;BMP280;36277;32.852;-116.998;2023-11-21T06:20:10;100675.41;;;24.78
45701;BMP280;36277;32.852;-116.998;2023-11-21T06:22:43;100687.88;;;24.74
45701;BMP280;36277;32.852;-116.998;2023-11-21T06:25:11;100676.81;;;24.74
45701;BMP280;36277;32.852;-116.998;2023-11-21T06:27:43;100677.00;;;24.72
45701;BMP280;36277;32.852;-116.998;2023-11-21T06:30:11;100672.75;;;24.70
45701;BMP280;36277;32.852;-116.998;2023-11-21T06:32:38;100683.94;;;24.68
45701;BMP280;36277;32.852;-116.998;2023-11-21T06:35:08;100672.44;;;24.65
45701;BMP280;36277;32.852;-116.998;2023-11-21T06:37:35;100681.91;;;24.62
45701;BMP280;36277;32.852;-116.998;2023-11-21T06:40:02;100677.06;;;24.64
45701;BMP280;36277;32.852;-116.998;2023-11-21T06:42:32;100672.78;;;24.62
45701;BMP280;36277;32.852;-116.998;2023-11-21T06:44:59;100685.91;;;24.60
45701;BMP280;36277;32.852;-116.998;2023-11-21T06:47:29;100685.03;;;24.59
45701;BMP280;36277;32.852;-116.998;2023-11-21T06:49:56;100682.13;;;24.61
45701;BMP280;36277;32.852;-116.998;2023-11-21T06:52:23;100670.97;;;24.54
45701;BMP280;36277;32.852;-116.998;2023-11-21T06:54:49;100679.75;;;24.50
45701;BMP280;36277;32.852;-116.998;2023-11-21T06:57:16;100683.88;;;24.54
45701;BMP280;36277;32.852;-116.998;2023-11-21T06:59:43;100673.03;;;24.52
45701;BMP280;36277;32.852;-116.998;2023-11-21T07:02:09;100665.28;;;24.48
45701;BMP280;36277;32.852;-116.998;2023-11-21T07:04:36;100667.00;;;24.49
45701;BMP280;36277;32.852;-116.998;2023-11-21T07:07:03;100665.28;;;24.48
45701;BMP280;36277;32.852;-116.998;2023-11-21T07:09:30;100664.44;;;24.47
45701;BMP280;36277;32.852;-116.998;2023-11-21T07:11:56;100647.38;;;24.44
45701;BMP280;36277;32.852;-116.998;2023-11-21T07:14:23;100656.69;;;24.43
45701;BMP280;36277;32.852;-116.998;2023-11-21T07:16:50;100641.34;;;24.40
45701;BMP280;36277;32.852;-116.998;2023-11-21T07:19:18;100651.91;;;24.37
45701;BMP280;36277;32.852;-116.998;2023-11-21T07:21:45;100646.19;;;24.38
45701;BMP280;36277;32.852;-116.998;2023-11-21T07:24:11;100653.09;;;24.34
45701;BMP280;36277;32.852;-116.998;2023-11-21T07:26:38;100653.97;;;24.35
45701;BMP280;36277;32.852;-116.998;2023-11-21T07:29:04;100652.25;;;24.34
45701;BMP280;36277;32.852;-116.998;2023-11-21T07:31:32;100650.91;;;24.30
45701;BMP280;36277;32.852;-116.998;2023-11-21T07:34:00;100644.91;;;24.26
45701;BMP280;36277;32.852;-116.998;2023-11-21T07:36:26;100650.91;;;24.30
45701;BMP280;36277;32.852;-116.998;2023-11-21T07:38:53;100661.94;;;24.30
45701;BMP280;36277;32.852;-116.998;2023-11-21T07:41:20;100650.59;;;24.25
45701;BMP280;36277;32.852;-116.998;2023-11-21T07:43:46;100654.25;;;24.17
45701;BMP280;36277;32.852;-116.998;2023-11-21T07:46:13;100656.66;;;24.20
45701;BMP280;36277;32.852;-116.998;2023-11-21T07:48:40;100659.63;;;24.19
45701;BMP280;36277;32.852;-116.998;2023-11-21T07:51:11;100654.09;;;24.19
45701;BMP280;36277;32.852;-116.998;2023-11-21T07:53:39;100658.06;;;24.16
45701;BMP280;36277;32.852;-116.998;2023-11-21T07:56:07;100666.53;;;24.15
45701;BMP280;36277;32.852;-116.998;2023-11-21T07:58:36;100664.13;;;24.12
45701;BMP280;36277;32.852;-116.998;2023-11-21T08:01:03;100664.28;;;24.11
45701;BMP280;36277;32.852;-116.998;2023-11-21T08:03:30;100670.84;;;24.10
45701;BMP280;36277;32.852;-116.998;2023-11-21T08:06:00;100667.44;;;24.08
45701;BMP280;36277;32.852;-116.998;2023-11-21T08:08:29;100657.25;;;24.08
45701;BMP280;36277;32.852;-116.998;2023-11-21T08:10:55;100664.38;;;24.03
45701;BMP280;36277;32.852;-116.998;2023-11-21T08:13:28;100665.56;;;24.00
45701;BMP280;36277;32.852;-116.998;2023-11-21T08:15:57;100667.81;;;24.05
45701;BMP280;36277;32.852;-116.998;2023-11-21T08:18:28;100664.88;;;23.98
45701;BMP280;36277;32.852;-116.998;2023-11-21T08:20:57;100670.72;;;24.03
45701;BMP280;36277;32.852;-116.998;2023-11-21T08:23:23;100665.91;;;23.97
45701;BMP280;36277;32.852;-116.998;2023-11-21T08:25:53;100668.38;;;23.92
45701;BMP280;36277;32.852;-116.998;2023-11-21T08:28:20;100662.00;;;23.92
45701;BMP280;36277;32.852;-116.998;2023-11-21T08:30:47;100668.75;;;23.89
45701;BMP280;36277;32.852;-116.998;2023-11-21T08:33:14;100666.16;;;23.88
45701;BMP280;36277;32.852;-116.998;2023-11-21T08:35:40;100670.63;;;23.89
45701;BMP280;36277;32.852;-116.998;2023-11-21T08:38:06;100674.97;;;23.83
45701;BMP280;36277;32.852;-116.998;2023-11-21T08:40:34;100670.13;;;23.85
45701;BMP280;36277;32.852;-116.998;2023-11-21T08:43:01;100687.91;;;23.83
45701;BMP280;36277;32.852;-116.998;2023-11-21T08:45:30;100680.66;;;23.82
45701;BMP280;36277;32.852;-116.998;2023-11-21T08:47:58;100671.53;;;23.81
45701;BMP280;36277;32.852;-116.998;2023-11-21T08:50:24;100668.97;;;23.80
45701;BMP280;36277;32.852;-116.998;2023-11-21T08:52:50;100688.75;;;23.75
45701;BMP280;36277;32.852;-116.998;2023-11-21T08:55:17;100684.09;;;23.76
45701;BMP280;36277;32.852;-116.998;2023-11-21T08:57:45;100679.97;;;23.72
45701;BMP280;36277;32.852;-116.998;2023-11-21T09:00:14;100671.34;;;23.75
45701;BMP280;36277;32.852;-116.998;2023-11-21T09:02:43;100670.84;;;23.71
45701;BMP280;36277;32.852;-116.998;2023-11-21T09:05:10;100666.19;;;23.72
45701;BMP280;36277;32.852;-116.998;2023-11-21T09:07:38;100676.72;;;23.68
45701;BMP280;36277;32.852;-116.998;2023-11-21T09:10:06;100677.75;;;23.67
45701;BMP280;36277;32.852;-116.998;2023-11-21T09:12:34;100658.47;;;23.67
45701;BMP280;36277;32.852;-116.998;2023-11-21T09:15:07;100660.53;;;23.65
45701;BMP280;36277;32.852;-116.998;2023-11-21T09:17:35;100671.03;;;23.62
45701;BMP280;36277;32.852;-116.998;2023-11-21T09:20:02;100659.66;;;23.65
45701;BMP280;36277;32.852;-116.998;2023-11-21T09:22:31;100668.47;;;23.60
45701;BMP280;36277;32.852;-116.998;2023-11-21T09:24:58;100670.06;;;23.55
45701;BMP280;36277;32.852;-116.998;2023-11-21T09:27:24;100670.06;;;23.55
45701;BMP280;36277;32.852;-116.998;2023-11-21T09:29:51;100672.63;;;23.56
45701;BMP280;36277;32.852;-116.998;2023-11-21T09:32:18;100670.22;;;23.53
45701;BMP280;36277;32.852;-116.998;2023-11-21T09:34:45;100666.63;;;23.53
45701;BMP280;36277;32.852;-116.998;2023-11-21T09:37:11;100667.81;;;23.50
45701;BMP280;36277;32.852;-116.998;2023-11-21T09:39:37;100669.19;;;23.46
45701;BMP280;36277;32.852;-116.998;2023-11-21T09:47:54;100684.75;;;23.39
45701;BMP280;36277;32.852;-116.998;2023-11-21T09:50:24;100675.78;;;23.37
45701;BMP280;36277;32.852;-116.998;2023-11-21T09:53:19;100679.22;;;23.39
45701;BMP280;36277;32.852;-116.998;2023-11-21T09:55:52;100683.91;;;23.31
45701;BMP280;36277;32.852;-116.998;2023-11-21T09:58:20;100682.69;;;23.33
45701;BMP280;36277;32.852;-116.998;2023-11-21T10:00:55;100676.97;;;23.35
45701;BMP280;36277;32.852;-116.998;2023-11-21T10:03:23;100684.75;;;23.31
45701;BMP280;36277;32.852;-116.998;2023-11-21T10:05:51;100693.19;;;23.30
45701;BMP280;36277;32.852;-116.998;2023-11-21T10:08:20;100688.53;;;23.30
45701;BMP280;36277;32.852;-116.998;2023-11-21T10:10:53;100693.34;;;23.28
45701;BMP280;36277;32.852;-116.998;2023-11-21T10:13:19;100687.00;;;23.28
45701;BMP280;36277;32.852;-116.998;2023-11-21T10:15:50;100678.75;;;23.28
45701;BMP280;36277;32.852;-116.998;2023-11-21T10:18:20;100687.50;;;23.23
45701;BMP280;36277;32.852;-116.998;2023-11-21T10:20:51;100698.53;;;23.23
45701;BMP280;36277;32.852;-116.998;2023-11-21T10:23:21;100715.22;;;23.22
45701;BMP280;36277;32.852;-116.998;2023-11-21T10:25:48;100713.16;;;23.16
45701;BMP280;36277;32.852;-116.998;2023-11-21T10:28:16;100711.59;;;23.21
45701;BMP280;36277;32.852;-116.998;2023-11-21T10:30:42;100708.53;;;23.16
45701;BMP280;36277;32.852;-116.998;2023-11-21T10:33:10;100707.16;;;23.12
45701;BMP280;36277;32.852;-116.998;2023-11-21T10:35:47;100696.31;;;23.19
45701;BMP280;36277;32.852;-116.998;2023-11-21T10:38:21;100701.13;;;23.09
45701;BMP280;36277;32.852;-116.998;2023-11-21T10:40:50;100693.06;;;23.07
45701;BMP280;36277;32.852;-116.998;2023-11-21T10:43:17;100689.56;;;23.05
45701;BMP280;36277;32.852;-116.998;2023-11-21T10:45:44;100689.56;;;23.05
45701;BMP280;36277;32.852;-116.998;2023-11-21T10:48:14;100708.69;;;23.07
45701;BMP280;36277;32.852;-116.998;2023-11-21T10:50:47;100703.53;;;23.04
45701;BMP280;36277;32.852;-116.998;2023-11-21T10:53:13;100697.34;;;23.02
45701;BMP280;36277;32.852;-116.998;2023-11-21T10:55:39;100705.06;;;22.98
45701;BMP280;36277;32.852;-116.998;2023-11-21T10:58:07;100717.63;;;23.01
45701;BMP280;36277;32.852;-116.998;2023-11-21T11:00:37;100727.06;;;22.98
45701;BMP280;36277;32.852;-116.998;2023-11-21T11:03:06;100731.56;;;22.92
45701;BMP280;36277;32.852;-116.998;2023-11-21T11:05:40;100721.41;;;22.92
45701;BMP280;36277;32.852;-116.998;2023-11-21T11:08:19;100728.63;;;22.93
45701;BMP280;36277;32.852;-116.998;2023-11-21T11:10:52;100741.22;;;22.88
45701;BMP280;36277;32.852;-116.998;2023-11-21T11:13:18;100737.75;;;22.86
45701;BMP280;36277;32.852;-116.998;2023-11-21T11:15:48;100735.38;;;22.91
45701;BMP280;36277;32.852;-116.998;2023-11-21T11:18:19;100715.22;;;22.90
45701;BMP280;36277;32.852;-116.998;2023-11-21T11:20:48;100716.78;;;22.85
45701;BMP280;36277;32.852;-116.998;2023-11-21T11:33:48;100738.25;;;22.81
45701;BMP280;36277;32.852;-116.998;2023-11-21T11:38:48;100742.03;;;22.72
45701;BMP280;36277;32.852;-116.998;2023-11-21T11:41:26;100750.13;;;22.74
45701;BMP280;36277;32.852;-116.998;2023-11-21T11:43:54;100741.16;;;22.72
45701;BMP280;36277;32.852;-116.998;2023-11-21T11:46:20;100745.31;;;22.68
45701;BMP280;36277;32.852;-116.998;2023-11-21T11:49:02;100743.59;;;22.75
45701;BMP280;36277;32.852;-116.998;2023-11-21T11:51:29;100747.03;;;22.61
45701;BMP280;36277;32.852;-116.998;2023-11-21T11:53:57;100750.28;;;22.64
45701;BMP280;36277;32.852;-116.998;2023-11-21T11:56:30;100753.03;;;22.64
45701;BMP280;36277;32.852;-116.998;2023-11-21T11:59:01;100748.56;;;22.63
45701;BMP280;36277;32.852;-116.998;2023-11-21T12:01:28;100753.56;;;22.60
45701;BMP280;36277;32.852;-116.998;2023-11-21T12:06:43;100769.19;;;22.59
45701;BMP280;36277;32.852;-116.998;2023-11-21T12:09:18;100767.31;;;22.60
45701;BMP280;36277;32.852;-116.998;2023-11-21T12:11:48;100771.94;;;22.51
45701;BMP280;36277;32.852;-116.998;2023-11-21T12:14:15;100780.72;;;22.55
45701;BMP280;36277;32.852;-116.998;2023-11-21T12:16:42;100771.59;;;22.54
45701;BMP280;36277;32.852;-116.998;2023-11-21T12:19:12;100781.41;;;22.57
45701;BMP280;36277;32.852;-116.998;2023-11-21T12:21:38;100783.97;;;22.50
45701;BMP280;36277;32.852;-116.998;2023-11-21T12:24:09;100785.16;;;22.48
45701;BMP280;36277;32.852;-116.998;2023-11-21T12:26:40;100788.78;;;22.48
45701;BMP280;36277;32.852;-116.998;2023-11-21T12:29:06;100796.00;;;22.49
45701;BMP280;36277;32.852;-116.998;2023-11-21T12:31:34;100793.59;;;22.46
45701;BMP280;36277;32.852;-116.998;2023-11-21T12:34:04;100807.66;;;22.43
45701;BMP280;36277;32.852;-116.998;2023-11-21T12:36:30;100794.09;;;22.42
45701;BMP280;36277;32.852;-116.998;2023-11-21T12:38:56;100792.38;;;22.41
45701;BMP280;36277;32.852;-116.998;2023-11-21T12:41:23;100796.16;;;22.40
45701;BMP280;36277;32.852;-116.998;2023-11-21T12:43:49;100797.31;;;22.37
45701;BMP280;36277;32.852;-116.998;2023-11-21T12:46:16;100810.03;;;22.38
45701;BMP280;36277;32.852;-116.998;2023-11-21T12:48:44;100809.03;;;22.39
45701;BMP280;36277;32.852;-116.998;2023-11-21T12:51:12;100796.47;;;22.37
45701;BMP280;36277;32.852;-116.998;2023-11-21T12:53:42;100798.63;;;22.33
45701;BMP280;36277;32.852;-116.998;2023-11-21T12:56:12;100808.66;;;22.34
45701;BMP280;36277;32.852;-116.998;2023-11-21T12:58:39;100814.44;;;22.31
45701;BMP280;36277;32.852;-116.998;2023-11-21T13:01:07;100813.94;;;22.28
45701;BMP280;36277;32.852;-116.998;2023-11-21T13:03:47;100819.44;;;22.28
45701;BMP280;36277;32.852;-116.998;2023-11-21T13:06:15;100831.63;;;22.25
45701;BMP280;36277;32.852;-116.998;2023-11-21T13:08:44;100824.09;;;22.27
45701;BMP280;36277;32.852;-116.998;2023-11-21T13:11:11;100833.84;;;22.22
45701;BMP280;36277;32.852;-116.998;2023-11-21T13:13:41;100831.63;;;22.25
45701;BMP280;36277;32.852;-116.998;2023-11-21T13:16:09;100814.91;;;22.19
45701;BMP280;36277;32.852;-116.998;2023-11-21T13:18:36;100814.06;;;22.18
45701;BMP280;36277;32.852;-116.998;2023-11-21T13:21:08;100822.13;;;22.20
45701;BMP280;36277;32.852;-116.998;2023-11-21T13:23:42;100809.91;;;22.14
45701;BMP280;36277;32.852;-116.998;2023-11-21T13:26:09;100826.25;;;22.16
45701;BMP280;36277;32.852;-116.998;2023-11-21T13:28:36;100860.97;;;22.17
45701;BMP280;36277;32.852;-116.998;2023-11-21T13:31:04;100852.03;;;22.15
45701;BMP280;36277;32.852;-116.998;2023-11-21T13:33:57;100863.34;;;22.12
45701;BMP280;36277;32.852;-116.998;2023-11-21T13:36:30;100861.41;;;22.04
45701;BMP280;36277;32.852;-116.998;2023-11-21T13:38:59;100856.47;;;22.08
45701;BMP280;36277;32.852;-116.998;2023-11-21T13:41:30;100865.88;;;22.05
45701;BMP280;36277;32.852;-116.998;2023-11-21T13:43:57;100864.84;;;22.06
45701;BMP280;36277;32.852;-116.998;2023-11-21T13:46:42;100869.81;;;22.03
45701;BMP280;36277;32.852;-116.998;2023-11-21T13:49:09;100884.59;;;22.02